LEIBLMML

Guest
Details From LEIB - Ibiza
To LMML - La Valette Luqa
Flight Number -
Tags decoded
Created
Modified
Stats Distance 651 nm / 1,205 km
Max Altitude 0 ft / 0 m
Waypoints 2
Social Downloads 0
Likes 0
Share VATSIM

Download

Looking for another format? Having issues loading an existing format? Contact us
Advertisement - Login to hide

Notes

Requested: LEIB LMML

Route

LEIB LMML

ID Type Via Altitude (ft/m) Position (lat/lon) Dist (leg/tot) Name
O LEIB APT - 0 / 0 38.87287 / 1.37304 - / 0 nm Ibiza
O LMML APT - 0 / 0 35.84948 / 14.48184 650 / 650 nm La Valette Luqa

Altitude Profile

Advertisement - Login to hide

Weather


0- 5 10 15 20 25 30 35+ Temperature / °C

Clouds and Precipitation
Forecast for 2018-10-23 12:00 UTC. Updated 2 minutes ago

Ground ~20,000 ft ~40,000 ft Winds

LEIB

Details ICAO LEIB (IBZ)
Name Ibiza
Region Spain
Timezone Europe/Madrid (UTC+2.0)
Stats Elevation 20 ft / 6 m (AMSL)
Location 38.872900° 1.373100°
Runways 1
Magnetic Variation 0.756° E

METAR

LEIB 230930Z 05008KT 020V080 9999 FEW030 22/12 Q1026 NOSIG

Decode

TAF

TAF LEIB 230800Z 2309/2409 08007KT 9999 SCT030 TX23/2312Z TN16/2405Z TEMPO 2312/2316 VRB04KT BECMG 2316/2318 01006KT BECMG 2322/2324 31006KT

Decode

Departure Runways

ID Width Length Bearing (true/mag) Surface Threshold Overrun Markings Lighting
06 148 ft / 45 m 9,196 ft / 2,803 m 61.99° / 61.24° ASPHALT 0 ft / 0 m 177 ft / 54 m APP CENTERLINE EDGE THRESHOLD MALS
24 148 ft / 45 m 9,196 ft / 2,803 m 242.01° / 241.25° ASPHALT 0 ft / 0 m 197 ft / 60 m PREC-APP CENTERLINE EDGE THRESHOLD CALVERT

LMML

Details ICAO LMML (MLA)
Name Malta Int'l
Region Malta
Timezone Europe/Malta (UTC+2.0)
Stats Elevation 299 ft / 91 m (AMSL)
Location 35.849500° 14.481800°
Runways 2
Magnetic Variation 3.101° E

METAR

LMML 230915Z 05009KT 9999 SCT020 FEW025CB 18/13 Q1009 NOSIG

Decode

TAF

Not found

Destination Runways

ID Width Length Bearing (true/mag) Surface Threshold Overrun Markings Lighting
05 148 ft / 45 m 7,802 ft / 2,378 m 54.36° / 51.26° CONCRETE 0 ft / 0 m 82 ft / 25 m PREC-APP CENTERLINE EDGE THRESHOLD MALSF
13 197 ft / 60 m 11,633 ft / 3,546 m 134.85° / 131.75° CONCRETE 0 ft / 0 m 0 ft / 0 m PREC-APP CENTERLINE EDGE THRESHOLD MALSR REIL-OMNI
23 148 ft / 45 m 7,802 ft / 2,378 m 234.37° / 231.27° CONCRETE 0 ft / 0 m 102 ft / 31 m PREC-APP CENTERLINE EDGE THRESHOLD MALSF
31 197 ft / 60 m 11,633 ft / 3,546 m 314.87° / 311.76° CONCRETE 614 ft / 187 m 177 ft / 54 m PREC-APP CENTERLINE EDGE THRESHOLD ALSF-I REIL-OMNI

Approach Navaids

Runway Type Ident Frequency Range Bearing (true/mag) Slope Elevation
13 GS LQ 109.70 MHz 10 nm / 19 km 134.86° / 131.76 ° 2.85° 299 ft / 91 m (AMSL)
13 LOC-ILS LQ 109.70 MHz 18 nm / 33 km 134.86° / 131.76 ° - 299 ft / 91 m (AMSL)
31 GS LM 110.50 MHz 10 nm / 19 km 314.86° / 311.76 ° 2.85° 299 ft / 91 m (AMSL)
31 LOC-ILS LM 110.50 MHz 18 nm / 33 km 314.86° / 311.76 ° - 299 ft / 91 m (AMSL)

Popular Alternatives